Flight Track Log - Related Links

Times and Time Zones

All times are in EDT time to prevent confusion due to time zone crossing. See the TAM3449 flight status page for this flight to view local times or setup timezone preferences in your user account.

Time Position Orientation Groundspeed Altitude Reporting Facility
EDT Latitude Longitude Course Direction KTS MPH feet Rate Location/Type
Mon 05:31:00 AM -3.7613 -48.3860 178° South  Level Estimated
Mon 05:32:00 AM -3.8605 -48.3822 178° South  Level Estimated
Mon 05:33:00 AM -3.9598 -48.3785 178° South  Level Estimated
Mon 05:34:00 AM -4.0590 -48.3747 178° South  Level Estimated
Mon 05:35:00 AM -4.1583 -48.3709 178° South  Level Estimated
Mon 05:36:00 AM -4.2575 -48.3671 178° South  Level Estimated
Mon 05:37:00 AM -4.3568 -48.3634 178° South  Level Estimated
Mon 05:38:00 AM -4.4560 -48.3596 178° South  Level Estimated
Mon 05:39:00 AM -4.5553 -48.3558 178° South  Level Estimated
Mon 05:40:00 AM -4.6545 -48.3520 178° South  Level Estimated
Mon 05:41:00 AM -4.7538 -48.3483 178° South  Level Estimated
Mon 05:42:00 AM -4.8530 -48.3445 178° South  Level Estimated
Mon 05:43:00 AM -4.9523 -48.3407 178° South  Level Estimated
Mon 05:44:00 AM -5.0515 -48.3369 178° South  Level Estimated
Mon 05:45:00 AM -5.1508 -48.3331 178° South  Level Estimated
Mon 05:46:00 AM -5.2500 -48.3293 178° South  Level Estimated
Mon 05:47:00 AM -5.3493 -48.3256 178° South  Level Estimated
Mon 05:48:00 AM -5.4485 -48.3218 178° South  Level Estimated
Mon 05:49:00 AM -5.5478 -48.3180 178° South  Level Estimated
Mon 05:50:00 AM -5.6470 -48.3142 178° South  Level Estimated
Mon 05:51:00 AM -5.7463 -48.3104 178° South  Level Estimated
Mon 05:52:00 AM -5.8455 -48.3066 178° South  Level Estimated
Mon 05:53:00 AM -5.9448 -48.3028 178° South  Level Estimated
Mon 05:54:00 AM -6.0440 -48.2990 178° South  Level Estimated
Mon 05:55:00 AM -6.1433 -48.2952 178° South  Level Estimated
Mon 05:56:00 AM -6.2425 -48.2914 178° South  Level Estimated
Mon 05:57:00 AM -6.3418 -48.2876 178° South  Level Estimated
Mon 05:58:00 AM -6.4410 -48.2838 178° South  Level Estimated
Mon 05:59:00 AM -6.5403 -48.2800 178° South  Level Estimated
Mon 06:00:00 AM -6.6395 -48.2762 178° South  Level Estimated
Mon 06:01:00 AM -6.7388 -48.2724 178° South  Level Estimated
Mon 06:02:00 AM -6.8380 -48.2686 178° South  Level Estimated
Mon 06:03:00 AM -6.9373 -48.2648 178° South  Level Estimated
Mon 06:04:00 AM -7.0365 -48.2610 178° South  Level Estimated
Mon 06:05:00 AM -7.1358 -48.2572 178° South  Level Estimated
Mon 06:06:00 AM -7.2350 -48.2533 178° South  Level Estimated
Mon 06:07:00 AM -7.3343 -48.2495 178° South  Level Estimated
Mon 06:08:00 AM -7.4335 -48.2457 178° South  Level Estimated
Mon 06:09:00 AM -7.5328 -48.2419 178° South  Level Estimated
Mon 06:10:00 AM -7.6320 -48.2381 178° South  Level Estimated
Mon 06:11:00 AM -7.7313 -48.2342 178° South  Level Estimated
Mon 06:12:00 AM -7.8305 -48.2304 178° South  Level Estimated
Mon 06:13:00 AM -7.9298 -48.2266 178° South  Level Estimated
Mon 06:14:00 AM -8.0290 -48.2228 178° South  Level Estimated
Mon 06:15:00 AM -8.1283 -48.2189 178° South  Level Estimated
Mon 06:16:00 AM -8.2275 -48.2151 178° South  Level Estimated
Mon 06:17:00 AM -8.3268 -48.2113 178° South  Level Estimated
Mon 06:18:00 AM -8.4260 -48.2074 178° South  Level Estimated
Mon 06:19:00 AM -8.5253 -48.2036 178° South  Level Estimated
Mon 06:20:00 AM -8.6245 -48.1998 178° South  Level Estimated
Mon 06:21:00 AM -8.7238 -48.1959 178° South  Level Estimated
Mon 06:22:00 AM -8.8230 -48.1921 178° South  Level Estimated
Mon 06:23:00 AM -8.9223 -48.1882 178° South  Level Estimated
Mon 06:24:00 AM -9.0215 -48.1844 178° South  Level Estimated
Mon 06:25:00 AM -9.1208 -48.1805 178° South  Level Estimated
Mon 06:26:00 AM -9.2200 -48.1767 178° South  Level Estimated
Mon 06:27:00 AM -9.3193 -48.1728 178° South  Level Estimated
Mon 06:28:00 AM -9.4185 -48.1690 178° South  Level Estimated
Mon 06:29:00 AM -9.5178 -48.1651 178° South  Level Estimated
Mon 06:30:00 AM -9.6170 -48.1613 178° South  Level Estimated
Mon 06:31:00 AM -9.7163 -48.1574 178° South  Level Estimated
Mon 06:32:00 AM -9.8155 -48.1535 178° South  Level Estimated
Mon 06:33:00 AM -9.9148 -48.1497 178° South  Level Estimated
Mon 06:34:00 AM -10.0140 -48.1458 178° South  Level Estimated
Mon 06:35:00 AM -10.1133 -48.1419 178° South  Level Estimated
Mon 06:36:00 AM -10.2125 -48.1380 178° South  Level Estimated
Mon 06:37:00 AM -10.3118 -48.1342 178° South  Level Estimated
Mon 06:38:00 AM -10.4110 -48.1303 178° South  Level Estimated
Mon 06:39:00 AM -10.5103 -48.1264 178° South  Level Estimated
Mon 06:40:00 AM -10.6095 -48.1225 178° South  Level Estimated
Mon 06:41:00 AM -10.7193 -48.1182 178° South  Level Estimated
Mon 06:42:00 AM -10.8291 -48.1139 178° South  Level Estimated
Mon 06:43:00 AM -10.9389 -48.1096 178° South  Level Estimated
Mon 06:44:00 AM -11.0486 -48.1053 178° South  Level Estimated
Mon 06:45:00 AM -11.1584 -48.1010 178° South  Level Estimated
Mon 06:46:00 AM -11.2682 -48.0967 178° South  Level Estimated
Mon 06:47:00 AM -11.3779 -48.0924 178° South  Level Estimated
Mon 06:48:00 AM -11.4877 -48.0880 178° South  Level Estimated
Mon 06:49:00 AM -11.5975 -48.0837 178° South  Level Estimated
Mon 06:50:00 AM -11.7073 -48.0794 178° South  Level Estimated
Mon 06:51:00 AM -11.8170 -48.0750 178° South  Level Estimated
Mon 06:52:00 AM -11.9268 -48.0707 178° South  Level Estimated
Mon 06:53:00 AM -12.0366 -48.0664 178° South  Level Estimated
Mon 06:54:00 AM -12.1463 -48.0620 178° South  Level Estimated
Mon 06:55:00 AM -12.2561 -48.0577 178° South  Level Estimated
Mon 06:56:00 AM -12.3659 -48.0533 178° South  Level Estimated
Mon 06:57:00 AM -12.4756 -48.0490 178° South  Level Estimated
Mon 06:58:00 AM -12.5854 -48.0446 178° South  Level Estimated
Mon 06:59:00 AM -12.6952 -48.0402 178° South  Level Estimated
Mon 07:00:00 AM -12.8050 -48.0359 178° South  Level Estimated
Mon 07:01:00 AM -12.9147 -48.0315 178° South  Level Estimated
Mon 07:02:00 AM -13.0245 -48.0271 178° South  Level Estimated
Mon 07:03:00 AM -13.1343 -48.0228 178° South  Level Estimated
Mon 07:04:00 AM -13.2440 -48.0184 178° South  Level Estimated
Mon 07:05:00 AM -13.3538 -48.0140 178° South  Level Estimated
Mon 07:06:00 AM -13.4636 -48.0096 178° South  Level Estimated
Mon 07:07:00 AM -13.5733 -48.0052 178° South  Level Estimated
Mon 07:08:00 AM -13.6831 -48.0008 178° South  Level Estimated
Mon 07:09:00 AM -13.7929 -47.9964 178° South  Level Estimated
Mon 07:10:00 AM -13.9027 -47.9920 178° South  Level Estimated
Mon 07:11:00 AM -14.0124 -47.9876 178° South  Level Estimated
Mon 07:12:00 AM -14.1222 -47.9832 178° South  Level Estimated
Mon 07:13:00 AM -14.2320 -47.9788 178° South  Level Estimated
Mon 07:14:00 AM -14.3417 -47.9744 178° South  Level Estimated
Mon 07:15:00 AM -14.4515 -47.9700 178° South  Level Estimated
Mon 07:16:00 AM -14.5613 -47.9655 178° South  Level Estimated
Mon 07:17:00 AM -14.6711 -47.9611 178° South  Level Estimated
Mon 07:18:00 AM -14.7808 -47.9566 178° South  Level Estimated
Mon 07:19:00 AM -14.8906 -47.9522 178° South  Level Estimated
Mon 07:20:00 AM -15.0004 -47.9478 178° South  Level Estimated
Mon 07:21:00 AM -15.1101 -47.9433 178° South  Level Estimated
Mon 07:22:00 AM -15.2199 -47.9389 178° South  Level Estimated
Mon 07:23:00 AM -15.3297 -47.9344 178° South  Level Estimated
Mon 07:24:00 AM -15.4394 -47.9299 178° South  Level Estimated
Mon 07:25:00 AM -15.5492 -47.9254 178° South  Level Estimated
Mon 07:26:00 AM -15.6590 -47.9210 178° South  Level Estimated
Mon 07:27:00 AM -15.7688 -47.9165 178° South  Level Estimated
Mon 07:28:00 AM -15.8626 -47.9127 178° South  Level Estimated
Mon 07:29:00 AM -15.8626 -47.9127 128° Southeast  Level Estimated
Mon 07:30:00 AM -15.8626 -47.9127 128° Southeast  Level Estimated
Mon 07:31:00 AM -15.8626 -47.9127 128° Southeast  Level Estimated
Mon 07:32:00 AM -15.8626 -47.9127 128° Southeast  Level Estimated
Mon 07:33:00 AM -15.8626 -47.9127 128° Southeast  Level Estimated
Mon 07:34:00 AM -15.8626 -47.9127 128° Southeast  Level Estimated
Mon 07:35:00 AM -15.8626 -47.9127 128° Southeast  Level Estimated

Login

Don't have an account? Register now (free) for customized features, flight alerts, and more!